Terminal Aerodrome Forecast
Issued by NWS

Home | Current Version | Previous Version | Graphics & Text | Print | Product List | Glossary On
Versions: 1 2 3 4 5 6 7 8 9 10 11 12 13 14 15 16 17 18
000
FTUS43 KICT 311200 AAA
TAFCNU
TAF AMD
KCNU 311201Z 3112/0112 01004KT 1SM BR VV004
      TEMPO 3112/3114 1/4SM FG
     FM311430 07005KT 3SM BR SCT012
     FM311530 07005KT P6SM SCT035=

USA.gov is the U.S. government's official web portal to all federal, state and local government web resources and services.